sensor_id;sensor_type;location;lat;lon;timestamp;temperature;humidity
15095;DHT22;7648;52.264;9.632;2022-10-31T00:01:13;14.50;99.90
15095;DHT22;7648;52.264;9.632;2022-10-31T00:05:15;14.50;99.90
15095;DHT22;7648;52.264;9.632;2022-10-31T00:09:17;14.40;99.90
15095;DHT22;7648;52.264;9.632;2022-10-31T00:13:19;14.40;99.90
15095;DHT22;7648;52.264;9.632;2022-10-31T00:17:22;14.40;99.90
15095;DHT22;7648;52.264;9.632;2022-10-31T00:21:25;14.30;99.90
15095;DHT22;7648;52.264;9.632;2022-10-31T00:25:28;14.20;99.90
15095;DHT22;7648;52.264;9.632;2022-10-31T00:29:30;14.20;99.90
15095;DHT22;7648;52.264;9.632;2022-10-31T00:33:35;14.00;99.90
15095;DHT22;7648;52.264;9.632;2022-10-31T00:37:38;14.00;99.90
15095;DHT22;7648;52.264;9.632;2022-10-31T00:41:40;13.90;99.90
15095;DHT22;7648;52.264;9.632;2022-10-31T00:45:46;13.80;99.90
15095;DHT22;7648;52.264;9.632;2022-10-31T00:49:50;13.70;99.90
15095;DHT22;7648;52.264;9.632;2022-10-31T00:53:51;13.70;99.90
15095;DHT22;7648;52.264;9.632;2022-10-31T00:57:53;13.60;99.90
15095;DHT22;7648;52.264;9.632;2022-10-31T01:01:55;13.70;99.90
15095;DHT22;7648;52.264;9.632;2022-10-31T01:06:01;13.90;99.90
15095;DHT22;7648;52.264;9.632;2022-10-31T01:10:07;14.00;99.90
15095;DHT22;7648;52.264;9.632;2022-10-31T01:14:10;14.00;99.90
15095;DHT22;7648;52.264;9.632;2022-10-31T01:18:12;14.00;99.90
15095;DHT22;7648;52.264;9.632;2022-10-31T01:22:15;13.90;99.90
15095;DHT22;7648;52.264;9.632;2022-10-31T01:26:19;13.90;99.90
15095;DHT22;7648;52.264;9.632;2022-10-31T01:30:21;14.00;99.90
15095;DHT22;7648;52.264;9.632;2022-10-31T01:34:23;14.30;99.90
15095;DHT22;7648;52.264;9.632;2022-10-31T01:38:26;14.50;99.90
15095;DHT22;7648;52.264;9.632;2022-10-31T01:42:28;14.70;99.90
15095;DHT22;7648;52.264;9.632;2022-10-31T01:46:34;14.90;99.90
15095;DHT22;7648;52.264;9.632;2022-10-31T01:50:38;15.00;99.90
15095;DHT22;7648;52.264;9.632;2022-10-31T01:54:46;15.10;99.90
15095;DHT22;7648;52.264;9.632;2022-10-31T01:58:48;15.00;99.90
15095;DHT22;7648;52.264;9.632;2022-10-31T02:02:51;15.00;99.90
15095;DHT22;7648;52.264;9.632;2022-10-31T02:06:59;15.00;99.90
15095;DHT22;7648;52.264;9.632;2022-10-31T02:11:05;15.00;99.90
15095;DHT22;7648;52.264;9.632;2022-10-31T02:15:09;15.00;99.90
15095;DHT22;7648;52.264;9.632;2022-10-31T02:19:15;14.90;99.90
15095;DHT22;7648;52.264;9.632;2022-10-31T02:23:44;14.90;99.90
15095;DHT22;7648;52.264;9.632;2022-10-31T02:32:27;14.70;99.90
15095;DHT22;7648;52.264;9.632;2022-10-31T02:36:38;14.60;99.90
15095;DHT22;7648;52.264;9.632;2022-10-31T02:40:50;14.60;99.90
15095;DHT22;7648;52.264;9.632;2022-10-31T02:45:29;14.50;99.90
15095;DHT22;7648;52.264;9.632;2022-10-31T02:49:39;14.40;99.90
15095;DHT22;7648;52.264;9.632;2022-10-31T02:53:43;14.30;99.90
15095;DHT22;7648;52.264;9.632;2022-10-31T02:57:45;14.10;99.90
15095;DHT22;7648;52.264;9.632;2022-10-31T03:02:00;13.90;99.90
15095;DHT22;7648;52.264;9.632;2022-10-31T03:06:10;13.80;99.90
15095;DHT22;7648;52.264;9.632;2022-10-31T03:10:20;13.70;99.90
15095;DHT22;7648;52.264;9.632;2022-10-31T03:14:32;13.60;99.90
15095;DHT22;7648;52.264;9.632;2022-10-31T03:18:39;13.50;99.90
15095;DHT22;7648;52.264;9.632;2022-10-31T03:22:44;13.40;99.90
15095;DHT22;7648;52.264;9.632;2022-10-31T03:26:51;13.40;99.90
15095;DHT22;7648;52.264;9.632;2022-10-31T03:30:56;13.40;99.90
15095;DHT22;7648;52.264;9.632;2022-10-31T03:35:04;13.30;99.90
15095;DHT22;7648;52.264;9.632;2022-10-31T03:39:12;13.20;99.90
15095;DHT22;7648;52.264;9.632;2022-10-31T03:43:17;13.00;99.90
15095;DHT22;7648;52.264;9.632;2022-10-31T03:47:22;12.80;99.90
15095;DHT22;7648;52.264;9.632;2022-10-31T03:51:28;12.80;99.90
15095;DHT22;7648;52.264;9.632;2022-10-31T03:55:41;12.70;99.90
15095;DHT22;7648;52.264;9.632;2022-10-31T03:59:48;12.60;99.90
15095;DHT22;7648;52.264;9.632;2022-10-31T04:03:53;12.60;99.90
15095;DHT22;7648;52.264;9.632;2022-10-31T04:07:56;12.60;99.90
15095;DHT22;7648;52.264;9.632;2022-10-31T04:12:04;12.60;99.90
15095;DHT22;7648;52.264;9.632;2022-10-31T04:16:30;12.60;99.90
15095;DHT22;7648;52.264;9.632;2022-10-31T04:20:33;12.50;99.90
15095;DHT22;7648;52.264;9.632;2022-10-31T04:24:36;12.30;99.90
15095;DHT22;7648;52.264;9.632;2022-10-31T04:28:41;12.20;99.90
15095;DHT22;7648;52.264;9.632;2022-10-31T04:32:43;12.10;99.90
15095;DHT22;7648;52.264;9.632;2022-10-31T04:36:45;12.00;99.90
15095;DHT22;7648;52.264;9.632;2022-10-31T04:40:49;12.00;99.90
15095;DHT22;7648;52.264;9.632;2022-10-31T04:45:11;11.90;99.90
15095;DHT22;7648;52.264;9.632;2022-10-31T04:49:15;12.00;99.90
15095;DHT22;7648;52.264;9.632;2022-10-31T04:53:17;12.00;99.90
15095;DHT22;7648;52.264;9.632;2022-10-31T04:57:46;12.10;99.90
15095;DHT22;7648;52.264;9.632;2022-10-31T05:01:50;12.00;99.90
15095;DHT22;7648;52.264;9.632;2022-10-31T05:05:58;12.00;99.90
15095;DHT22;7648;52.264;9.632;2022-10-31T05:10:01;12.00;99.90
15095;DHT22;7648;52.264;9.632;2022-10-31T05:14:05;11.90;99.90
15095;DHT22;7648;52.264;9.632;2022-10-31T05:18:31;11.90;99.90
15095;DHT22;7648;52.264;9.632;2022-10-31T05:22:36;11.80;99.90
15095;DHT22;7648;52.264;9.632;2022-10-31T05:26:38;11.80;99.90
15095;DHT22;7648;52.264;9.632;2022-10-31T05:30:40;11.60;99.90
15095;DHT22;7648;52.264;9.632;2022-10-31T05:34:47;11.50;99.90
15095;DHT22;7648;52.264;9.632;2022-10-31T05:39:12;11.50;99.90
15095;DHT22;7648;52.264;9.632;2022-10-31T05:43:17;11.40;99.90
15095;DHT22;7648;52.264;9.632;2022-10-31T05:47:19;11.30;99.90
15095;DHT22;7648;52.264;9.632;2022-10-31T05:51:45;11.40;99.90
15095;DHT22;7648;52.264;9.632;2022-10-31T05:55:47;11.40;99.90
15095;DHT22;7648;52.264;9.632;2022-10-31T05:59:53;11.30;99.90
15095;DHT22;7648;52.264;9.632;2022-10-31T06:03:57;11.20;99.90
15095;DHT22;7648;52.264;9.632;2022-10-31T06:08:00;11.20;99.90
15095;DHT22;7648;52.264;9.632;2022-10-31T06:12:05;11.10;99.90
15095;DHT22;7648;52.264;9.632;2022-10-31T06:16:26;11.00;99.90
15095;DHT22;7648;52.264;9.632;2022-10-31T06:20:32;11.00;99.90
15095;DHT22;7648;52.264;9.632;2022-10-31T06:24:39;10.90;99.90
15095;DHT22;7648;52.264;9.632;2022-10-31T06:28:53;11.00;99.90
15095;DHT22;7648;52.264;9.632;2022-10-31T06:33:10;11.00;99.90
15095;DHT22;7648;52.264;9.632;2022-10-31T06:37:17;11.10;99.90
15095;DHT22;7648;52.264;9.632;2022-10-31T06:41:24;11.20;99.90
15095;DHT22;7648;52.264;9.632;2022-10-31T06:45:28;11.20;99.90
15095;DHT22;7648;52.264;9.632;2022-10-31T06:49:48;11.30;99.90
15095;DHT22;7648;52.264;9.632;2022-10-31T06:53:54;11.30;99.90
15095;DHT22;7648;52.264;9.632;2022-10-31T06:57:59;11.40;99.90
15095;DHT22;7648;52.264;9.632;2022-10-31T07:02:01;11.40;99.90
15095;DHT22;7648;52.264;9.632;2022-10-31T07:06:04;11.50;99.90
15095;DHT22;7648;52.264;9.632;2022-10-31T07:10:07;11.50;99.90
15095;DHT22;7648;52.264;9.632;2022-10-31T07:14:23;11.50;99.90
15095;DHT22;7648;52.264;9.632;2022-10-31T07:18:26;11.50;99.90
15095;DHT22;7648;52.264;9.632;2022-10-31T07:22:33;11.40;99.90
15095;DHT22;7648;52.264;9.632;2022-10-31T07:26:35;11.40;99.90
15095;DHT22;7648;52.264;9.632;2022-10-31T07:30:38;11.50;99.90
15095;DHT22;7648;52.264;9.632;2022-10-31T07:34:40;11.50;99.90
15095;DHT22;7648;52.264;9.632;2022-10-31T07:38:51;11.60;99.90
15095;DHT22;7648;52.264;9.632;2022-10-31T07:42:53;11.60;99.90
15095;DHT22;7648;52.264;9.632;2022-10-31T07:47:15;11.70;99.90
15095;DHT22;7648;52.264;9.632;2022-10-31T07:51:56;11.80;99.90
15095;DHT22;7648;52.264;9.632;2022-10-31T07:56:33;11.90;99.90
15095;DHT22;7648;52.264;9.632;2022-10-31T08:00:36;11.90;99.90
15095;DHT22;7648;52.264;9.632;2022-10-31T08:04:40;12.00;99.90
15095;DHT22;7648;52.264;9.632;2022-10-31T08:09:00;12.00;99.90
15095;DHT22;7648;52.264;9.632;2022-10-31T08:13:04;12.20;99.90
15095;DHT22;7648;52.264;9.632;2022-10-31T08:17:11;12.30;99.90
15095;DHT22;7648;52.264;9.632;2022-10-31T08:21:26;12.30;99.90
15095;DHT22;7648;52.264;9.632;2022-10-31T08:25:30;12.50;99.90
15095;DHT22;7648;52.264;9.632;2022-10-31T08:29:35;12.60;99.90
15095;DHT22;7648;52.264;9.632;2022-10-31T08:33:39;12.70;99.90
15095;DHT22;7648;52.264;9.632;2022-10-31T08:37:54;12.90;99.90
15095;DHT22;7648;52.264;9.632;2022-10-31T08:42:00;13.10;99.90
15095;DHT22;7648;52.264;9.632;2022-10-31T08:46:02;13.30;99.90
15095;DHT22;7648;52.264;9.632;2022-10-31T08:50:05;13.50;99.90
15095;DHT22;7648;52.264;9.632;2022-10-31T08:54:10;13.70;99.90
15095;DHT22;7648;52.264;9.632;2022-10-31T08:58:30;13.80;99.90
15095;DHT22;7648;52.264;9.632;2022-10-31T09:02:36;13.90;99.90
15095;DHT22;7648;52.264;9.632;2022-10-31T09:06:39;14.10;99.90
15095;DHT22;7648;52.264;9.632;2022-10-31T09:10:42;14.30;99.90
15095;DHT22;7648;52.264;9.632;2022-10-31T09:14:45;14.50;99.90
15095;DHT22;7648;52.264;9.632;2022-10-31T09:18:56;14.60;99.90
15095;DHT22;7648;52.264;9.632;2022-10-31T09:23:00;14.70;99.90
15095;DHT22;7648;52.264;9.632;2022-10-31T09:27:05;14.90;99.90
15095;DHT22;7648;52.264;9.632;2022-10-31T09:31:12;15.00;99.90
15095;DHT22;7648;52.264;9.632;2022-10-31T09:35:37;15.20;99.90
15095;DHT22;7648;52.264;9.632;2022-10-31T09:39:40;15.30;99.90
15095;DHT22;7648;52.264;9.632;2022-10-31T09:43:55;15.30;99.90
15095;DHT22;7648;52.264;9.632;2022-10-31T09:48:13;15.30;99.90
15095;DHT22;7648;52.264;9.632;2022-10-31T09:52:40;15.30;99.90
15095;DHT22;7648;52.264;9.632;2022-10-31T09:56:45;15.40;99.90
15095;DHT22;7648;52.264;9.632;2022-10-31T10:00:49;15.50;99.90
15095;DHT22;7648;52.264;9.632;2022-10-31T10:04:56;15.70;99.90
15095;DHT22;7648;52.264;9.632;2022-10-31T10:08:59;15.80;99.90
15095;DHT22;7648;52.264;9.632;2022-10-31T10:13:42;16.00;99.90
15095;DHT22;7648;52.264;9.632;2022-10-31T10:17:52;16.10;99.90
15095;DHT22;7648;52.264;9.632;2022-10-31T10:22:07;16.20;99.90
15095;DHT22;7648;52.264;9.632;2022-10-31T10:26:16;16.20;99.90
15095;DHT22;7648;52.264;9.632;2022-10-31T10:30:21;16.40;99.90
15095;DHT22;7648;52.264;9.632;2022-10-31T10:34:27;16.50;99.90
15095;DHT22;7648;52.264;9.632;2022-10-31T10:38:36;16.60;99.90
15095;DHT22;7648;52.264;9.632;2022-10-31T10:42:40;16.80;99.90
15095;DHT22;7648;52.264;9.632;2022-10-31T10:47:00;16.80;99.90
15095;DHT22;7648;52.264;9.632;2022-10-31T10:51:25;17.00;99.90
15095;DHT22;7648;52.264;9.632;2022-10-31T10:55:35;17.10;99.90
15095;DHT22;7648;52.264;9.632;2022-10-31T10:59:38;17.20;99.90
15095;DHT22;7648;52.264;9.632;2022-10-31T11:03:41;17.30;99.90
15095;DHT22;7648;52.264;9.632;2022-10-31T11:07:44;17.40;99.90
15095;DHT22;7648;52.264;9.632;2022-10-31T11:11:46;17.50;99.90
15095;DHT22;7648;52.264;9.632;2022-10-31T11:15:56;17.60;99.90
15095;DHT22;7648;52.264;9.632;2022-10-31T11:20:01;17.70;99.90
15095;DHT22;7648;52.264;9.632;2022-10-31T11:24:13;17.80;99.90
15095;DHT22;7648;52.264;9.632;2022-10-31T11:28:16;17.90;99.90
15095;DHT22;7648;52.264;9.632;2022-10-31T11:32:20;18.00;99.90
15095;DHT22;7648;52.264;9.632;2022-10-31T11:36:25;18.20;99.90
15095;DHT22;7648;52.264;9.632;2022-10-31T11:40:29;18.30;99.90
15095;DHT22;7648;52.264;9.632;2022-10-31T11:44:31;18.50;99.90
15095;DHT22;7648;52.264;9.632;2022-10-31T11:48:34;18.50;99.90
15095;DHT22;7648;52.264;9.632;2022-10-31T11:52:38;18.50;99.90
15095;DHT22;7648;52.264;9.632;2022-10-31T11:56:42;18.50;99.90
15095;DHT22;7648;52.264;9.632;2022-10-31T12:00:49;18.50;99.90
15095;DHT22;7648;52.264;9.632;2022-10-31T12:05:00;18.50;99.90
15095;DHT22;7648;52.264;9.632;2022-10-31T12:09:17;18.50;99.90
15095;DHT22;7648;52.264;9.632;2022-10-31T12:13:33;18.50;99.90
15095;DHT22;7648;52.264;9.632;2022-10-31T12:17:42;18.40;99.90
15095;DHT22;7648;52.264;9.632;2022-10-31T12:21:57;18.30;99.90
15095;DHT22;7648;52.264;9.632;2022-10-31T12:26:09;18.30;99.90
15095;DHT22;7648;52.264;9.632;2022-10-31T12:30:19;18.40;99.90
15095;DHT22;7648;52.264;9.632;2022-10-31T12:34:40;18.40;99.90
15095;DHT22;7648;52.264;9.632;2022-10-31T12:39:22;18.40;99.90
15095;DHT22;7648;52.264;9.632;2022-10-31T12:43:36;18.40;99.90
15095;DHT22;7648;52.264;9.632;2022-10-31T12:48:00;18.30;99.90
15095;DHT22;7648;52.264;9.632;2022-10-31T12:52:14;18.30;99.90
15095;DHT22;7648;52.264;9.632;2022-10-31T12:56:28;18.20;99.90
15095;DHT22;7648;52.264;9.632;2022-10-31T13:00:34;18.10;99.90
15095;DHT22;7648;52.264;9.632;2022-10-31T13:04:44;17.90;99.90
15095;DHT22;7648;52.264;9.632;2022-10-31T13:08:52;17.90;99.90
15095;DHT22;7648;52.264;9.632;2022-10-31T13:13:00;17.90;99.90
15095;DHT22;7648;52.264;9.632;2022-10-31T13:17:04;17.90;99.90
15095;DHT22;7648;52.264;9.632;2022-10-31T13:21:13;17.90;99.90
15095;DHT22;7648;52.264;9.632;2022-10-31T13:25:21;17.90;99.90
15095;DHT22;7648;52.264;9.632;2022-10-31T13:29:29;17.90;99.90
15095;DHT22;7648;52.264;9.632;2022-10-31T13:33:35;17.90;99.90
15095;DHT22;7648;52.264;9.632;2022-10-31T13:37:43;17.90;99.90
15095;DHT22;7648;52.264;9.632;2022-10-31T13:41:49;17.80;99.90
15095;DHT22;7648;52.264;9.632;2022-10-31T13:45:54;17.80;99.90
15095;DHT22;7648;52.264;9.632;2022-10-31T13:50:05;17.80;99.90
15095;DHT22;7648;52.264;9.632;2022-10-31T13:54:21;17.80;99.90
15095;DHT22;7648;52.264;9.632;2022-10-31T13:58:25;17.80;99.90
15095;DHT22;7648;52.264;9.632;2022-10-31T14:02:29;17.80;99.90
15095;DHT22;7648;52.264;9.632;2022-10-31T14:06:37;17.80;99.90
15095;DHT22;7648;52.264;9.632;2022-10-31T14:10:47;17.80;99.90
15095;DHT22;7648;52.264;9.632;2022-10-31T14:14:52;17.70;99.90
15095;DHT22;7648;52.264;9.632;2022-10-31T14:18:59;17.60;99.90
15095;DHT22;7648;52.264;9.632;2022-10-31T14:23:31;17.50;99.90
15095;DHT22;7648;52.264;9.632;2022-10-31T14:27:45;17.50;99.90
15095;DHT22;7648;52.264;9.632;2022-10-31T14:31:53;17.40;99.90
15095;DHT22;7648;52.264;9.632;2022-10-31T14:35:59;17.40;99.90
15095;DHT22;7648;52.264;9.632;2022-10-31T14:40:20;17.40;99.90
15095;DHT22;7648;52.264;9.632;2022-10-31T14:49:24;17.30;99.90
15095;DHT22;7648;52.264;9.632;2022-10-31T14:53:32;17.20;99.90
15095;DHT22;7648;52.264;9.632;2022-10-31T14:57:37;17.20;99.90
15095;DHT22;7648;52.264;9.632;2022-10-31T15:01:40;17.10;99.90
15095;DHT22;7648;52.264;9.632;2022-10-31T15:05:52;17.00;99.90
15095;DHT22;7648;52.264;9.632;2022-10-31T15:09:56;16.90;99.90
15095;DHT22;7648;52.264;9.632;2022-10-31T15:13:59;16.90;99.90
15095;DHT22;7648;52.264;9.632;2022-10-31T15:18:04;16.80;99.90
15095;DHT22;7648;52.264;9.632;2022-10-31T15:22:12;16.70;99.90
15095;DHT22;7648;52.264;9.632;2022-10-31T15:26:17;16.60;99.90
15095;DHT22;7648;52.264;9.632;2022-10-31T15:30:22;16.50;99.90
15095;DHT22;7648;52.264;9.632;2022-10-31T15:34:30;16.50;99.90
15095;DHT22;7648;52.264;9.632;2022-10-31T15:38:36;16.40;99.90
15095;DHT22;7648;52.264;9.632;2022-10-31T15:42:40;16.30;99.90
15095;DHT22;7648;52.264;9.632;2022-10-31T15:46:42;16.10;99.90
15095;DHT22;7648;52.264;9.632;2022-10-31T15:50:49;16.10;99.90
15095;DHT22;7648;52.264;9.632;2022-10-31T15:54:54;16.00;99.90
15095;DHT22;7648;52.264;9.632;2022-10-31T15:58:59;15.90;99.90
15095;DHT22;7648;52.264;9.632;2022-10-31T16:03:07;15.80;99.90
15095;DHT22;7648;52.264;9.632;2022-10-31T16:07:14;15.70;99.90
15095;DHT22;7648;52.264;9.632;2022-10-31T16:11:23;15.70;99.90
15095;DHT22;7648;52.264;9.632;2022-10-31T16:15:26;15.60;99.90
15095;DHT22;7648;52.264;9.632;2022-10-31T16:19:30;15.50;99.90
15095;DHT22;7648;52.264;9.632;2022-10-31T16:23:33;15.50;99.90
15095;DHT22;7648;52.264;9.632;2022-10-31T16:27:38;15.40;99.90
15095;DHT22;7648;52.264;9.632;2022-10-31T16:31:40;15.40;99.90
15095;DHT22;7648;52.264;9.632;2022-10-31T16:35:42;15.40;99.90
15095;DHT22;7648;52.264;9.632;2022-10-31T16:39:44;15.40;99.90
15095;DHT22;7648;52.264;9.632;2022-10-31T16:43:47;15.40;99.90
15095;DHT22;7648;52.264;9.632;2022-10-31T16:47:50;15.30;99.90
15095;DHT22;7648;52.264;9.632;2022-10-31T16:51:52;15.30;99.90
15095;DHT22;7648;52.264;9.632;2022-10-31T16:55:55;15.30;99.90
15095;DHT22;7648;52.264;9.632;2022-10-31T16:59:59;15.20;99.90
15095;DHT22;7648;52.264;9.632;2022-10-31T17:04:01;15.20;99.90
15095;DHT22;7648;52.264;9.632;2022-10-31T17:08:04;15.20;99.90
15095;DHT22;7648;52.264;9.632;2022-10-31T17:12:06;15.10;99.90
15095;DHT22;7648;52.264;9.632;2022-10-31T17:16:13;15.10;99.90
15095;DHT22;7648;52.264;9.632;2022-10-31T17:20:22;15.10;99.90
15095;DHT22;7648;52.264;9.632;2022-10-31T17:24:24;15.10;99.90
15095;DHT22;7648;52.264;9.632;2022-10-31T17:28:26;15.10;99.90
15095;DHT22;7648;52.264;9.632;2022-10-31T17:32:29;15.10;99.90
15095;DHT22;7648;52.264;9.632;2022-10-31T17:36:31;15.10;99.90
15095;DHT22;7648;52.264;9.632;2022-10-31T17:40:36;15.10;99.90
15095;DHT22;7648;52.264;9.632;2022-10-31T17:44:38;15.10;99.90
15095;DHT22;7648;52.264;9.632;2022-10-31T17:48:41;15.10;99.90
15095;DHT22;7648;52.264;9.632;2022-10-31T17:52:43;15.10;99.90
15095;DHT22;7648;52.264;9.632;2022-10-31T17:56:45;15.10;99.90
15095;DHT22;7648;52.264;9.632;2022-10-31T18:00:47;15.00;99.90
15095;DHT22;7648;52.264;9.632;2022-10-31T18:04:50;15.00;99.90
15095;DHT22;7648;52.264;9.632;2022-10-31T18:08:52;15.00;99.90
15095;DHT22;7648;52.264;9.632;2022-10-31T18:12:57;15.00;99.90
15095;DHT22;7648;52.264;9.632;2022-10-31T18:16:59;15.00;99.90
15095;DHT22;7648;52.264;9.632;2022-10-31T18:21:03;14.90;99.90
15095;DHT22;7648;52.264;9.632;2022-10-31T18:25:05;14.90;99.90
15095;DHT22;7648;52.264;9.632;2022-10-31T18:29:09;14.90;99.90
15095;DHT22;7648;52.264;9.632;2022-10-31T18:33:11;14.90;99.90
15095;DHT22;7648;52.264;9.632;2022-10-31T18:37:14;14.90;99.90
15095;DHT22;7648;52.264;9.632;2022-10-31T18:41:16;14.90;99.90
15095;DHT22;7648;52.264;9.632;2022-10-31T18:45:18;14.80;99.90
15095;DHT22;7648;52.264;9.632;2022-10-31T18:49:20;14.80;99.90
15095;DHT22;7648;52.264;9.632;2022-10-31T18:53:25;14.80;99.90
15095;DHT22;7648;52.264;9.632;2022-10-31T18:57:26;14.80;99.90
15095;DHT22;7648;52.264;9.632;2022-10-31T19:01:29;14.80;99.90
15095;DHT22;7648;52.264;9.632;2022-10-31T19:05:31;14.70;99.90
15095;DHT22;7648;52.264;9.632;2022-10-31T19:09:35;14.70;99.90
15095;DHT22;7648;52.264;9.632;2022-10-31T19:13:38;14.60;99.90
15095;DHT22;7648;52.264;9.632;2022-10-31T19:17:40;14.50;99.90
15095;DHT22;7648;52.264;9.632;2022-10-31T19:21:42;14.40;99.90
15095;DHT22;7648;52.264;9.632;2022-10-31T19:25:46;14.40;99.90
15095;DHT22;7648;52.264;9.632;2022-10-31T19:29:47;14.40;99.90
15095;DHT22;7648;52.264;9.632;2022-10-31T19:33:49;14.30;99.90
15095;DHT22;7648;52.264;9.632;2022-10-31T19:37:51;14.30;99.90
15095;DHT22;7648;52.264;9.632;2022-10-31T19:41:55;14.30;99.90
15095;DHT22;7648;52.264;9.632;2022-10-31T19:45:58;14.30;99.90
15095;DHT22;7648;52.264;9.632;2022-10-31T19:50:00;14.30;99.90
15095;DHT22;7648;52.264;9.632;2022-10-31T19:54:04;14.30;99.90
15095;DHT22;7648;52.264;9.632;2022-10-31T19:58:07;14.30;99.90
15095;DHT22;7648;52.264;9.632;2022-10-31T20:02:11;14.30;99.90
15095;DHT22;7648;52.264;9.632;2022-10-31T20:06:21;14.30;99.90
15095;DHT22;7648;52.264;9.632;2022-10-31T20:10:24;14.40;99.90
15095;DHT22;7648;52.264;9.632;2022-10-31T20:14:27;14.40;99.90
15095;DHT22;7648;52.264;9.632;2022-10-31T20:18:29;14.40;99.90
15095;DHT22;7648;52.264;9.632;2022-10-31T20:22:31;14.40;99.90
15095;DHT22;7648;52.264;9.632;2022-10-31T20:26:33;14.50;99.90
15095;DHT22;7648;52.264;9.632;2022-10-31T20:30:37;14.50;99.90
15095;DHT22;7648;52.264;9.632;2022-10-31T20:34:38;14.50;99.90
15095;DHT22;7648;52.264;9.632;2022-10-31T20:38:41;14.50;99.90
15095;DHT22;7648;52.264;9.632;2022-10-31T20:42:43;14.40;99.90
15095;DHT22;7648;52.264;9.632;2022-10-31T20:46:46;14.40;99.90
15095;DHT22;7648;52.264;9.632;2022-10-31T20:50:48;14.40;99.90
15095;DHT22;7648;52.264;9.632;2022-10-31T20:54:50;14.40;99.90
15095;DHT22;7648;52.264;9.632;2022-10-31T20:58:53;14.40;99.90
15095;DHT22;7648;52.264;9.632;2022-10-31T21:02:56;14.40;99.90
15095;DHT22;7648;52.264;9.632;2022-10-31T21:06:58;14.40;99.90
15095;DHT22;7648;52.264;9.632;2022-10-31T21:11:05;14.30;99.90
15095;DHT22;7648;52.264;9.632;2022-10-31T21:15:08;14.30;99.90
15095;DHT22;7648;52.264;9.632;2022-10-31T21:19:12;14.20;99.90
15095;DHT22;7648;52.264;9.632;2022-10-31T21:23:14;14.20;99.90
15095;DHT22;7648;52.264;9.632;2022-10-31T21:27:16;14.20;99.90
15095;DHT22;7648;52.264;9.632;2022-10-31T21:31:18;14.10;99.90
15095;DHT22;7648;52.264;9.632;2022-10-31T21:35:21;14.10;99.90
15095;DHT22;7648;52.264;9.632;2022-10-31T21:39:23;14.00;99.90
15095;DHT22;7648;52.264;9.632;2022-10-31T21:43:25;14.00;99.90
15095;DHT22;7648;52.264;9.632;2022-10-31T21:47:27;14.00;99.90
15095;DHT22;7648;52.264;9.632;2022-10-31T21:51:32;13.90;99.90
15095;DHT22;7648;52.264;9.632;2022-10-31T21:55:34;13.80;99.90
15095;DHT22;7648;52.264;9.632;2022-10-31T21:59:36;13.70;99.90
15095;DHT22;7648;52.264;9.632;2022-10-31T22:03:41;13.60;99.90
15095;DHT22;7648;52.264;9.632;2022-10-31T22:07:44;13.50;99.90
15095;DHT22;7648;52.264;9.632;2022-10-31T22:11:46;13.50;99.90
15095;DHT22;7648;52.264;9.632;2022-10-31T22:15:48;13.40;99.90
15095;DHT22;7648;52.264;9.632;2022-10-31T22:19:50;13.30;99.90
15095;DHT22;7648;52.264;9.632;2022-10-31T22:23:56;13.30;99.90
15095;DHT22;7648;52.264;9.632;2022-10-31T22:27:58;13.40;99.90
15095;DHT22;7648;52.264;9.632;2022-10-31T22:32:06;13.40;99.90
15095;DHT22;7648;52.264;9.632;2022-10-31T22:36:10;13.50;99.90
15095;DHT22;7648;52.264;9.632;2022-10-31T22:40:14;13.50;99.90
15095;DHT22;7648;52.264;9.632;2022-10-31T22:44:16;13.50;99.90
15095;DHT22;7648;52.264;9.632;2022-10-31T22:48:17;13.50;99.90
15095;DHT22;7648;52.264;9.632;2022-10-31T22:52:19;13.50;99.90
15095;DHT22;7648;52.264;9.632;2022-10-31T22:56:25;13.50;99.90
15095;DHT22;7648;52.264;9.632;2022-10-31T23:00:28;13.40;99.90
15095;DHT22;7648;52.264;9.632;2022-10-31T23:04:29;13.40;99.90
15095;DHT22;7648;52.264;9.632;2022-10-31T23:08:34;13.40;99.90
15095;DHT22;7648;52.264;9.632;2022-10-31T23:12:37;13.50;99.90
15095;DHT22;7648;52.264;9.632;2022-10-31T23:16:56;13.50;99.90
15095;DHT22;7648;52.264;9.632;2022-10-31T23:21:00;13.60;99.90
15095;DHT22;7648;52.264;9.632;2022-10-31T23:25:03;13.60;99.90
15095;DHT22;7648;52.264;9.632;2022-10-31T23:29:07;13.60;99.90
15095;DHT22;7648;52.264;9.632;2022-10-31T23:33:08;13.70;99.90
15095;DHT22;7648;52.264;9.632;2022-10-31T23:37:10;13.70;99.90
15095;DHT22;7648;52.264;9.632;2022-10-31T23:41:12;13.70;99.90
15095;DHT22;7648;52.264;9.632;2022-10-31T23:45:15;13.70;99.90
15095;DHT22;7648;52.264;9.632;2022-10-31T23:49:18;13.60;99.90
15095;DHT22;7648;52.264;9.632;2022-10-31T23:53:19;13.50;99.90
15095;DHT22;7648;52.264;9.632;2022-10-31T23:57:21;13.50;99.90
